sensor_id;sensor_type;location;lat;lon;timestamp;P1;durP1;ratioP1;P2;durP2;ratioP2
3337;SDS011;1682;49.286;10.788;2023-07-16T00:01:56;5.50;;;5.00;;
3337;SDS011;1682;49.286;10.788;2023-07-16T00:04:43;7.43;;;6.60;;
3337;SDS011;1682;49.286;10.788;2023-07-16T00:07:31;8.20;;;7.50;;
3337;SDS011;1682;49.286;10.788;2023-07-16T00:10:20;7.37;;;6.77;;
3337;SDS011;1682;49.286;10.788;2023-07-16T00:13:07;10.33;;;8.80;;
3337;SDS011;1682;49.286;10.788;2023-07-16T00:15:54;8.00;;;6.60;;
3337;SDS011;1682;49.286;10.788;2023-07-16T00:18:44;8.37;;;6.63;;
3337;SDS011;1682;49.286;10.788;2023-07-16T00:21:31;8.00;;;6.83;;
3337;SDS011;1682;49.286;10.788;2023-07-16T00:24:19;6.80;;;5.97;;
3337;SDS011;1682;49.286;10.788;2023-07-16T00:27:08;7.50;;;5.67;;
3337;SDS011;1682;49.286;10.788;2023-07-16T00:29:55;7.40;;;6.67;;
3337;SDS011;1682;49.286;10.788;2023-07-16T00:32:43;6.43;;;5.50;;
3337;SDS011;1682;49.286;10.788;2023-07-16T00:35:30;11.50;;;5.97;;
3337;SDS011;1682;49.286;10.788;2023-07-16T00:38:18;7.17;;;6.30;;
3337;SDS011;1682;49.286;10.788;2023-07-16T00:41:05;6.70;;;6.00;;
3337;SDS011;1682;49.286;10.788;2023-07-16T00:43:54;7.23;;;5.73;;
3337;SDS011;1682;49.286;10.788;2023-07-16T00:46:41;6.67;;;5.87;;
3337;SDS011;1682;49.286;10.788;2023-07-16T00:49:29;6.40;;;5.90;;
3337;SDS011;1682;49.286;10.788;2023-07-16T00:52:18;6.87;;;6.10;;
3337;SDS011;1682;49.286;10.788;2023-07-16T00:55:06;7.07;;;5.50;;
3337;SDS011;1682;49.286;10.788;2023-07-16T01:06:21;9.90;;;4.90;;
3337;SDS011;1682;49.286;10.788;2023-07-16T01:09:11;6.63;;;4.17;;
3337;SDS011;1682;49.286;10.788;2023-07-16T01:12:02;8.07;;;5.57;;
3337;SDS011;1682;49.286;10.788;2023-07-16T01:14:50;6.07;;;4.00;;
3337;SDS011;1682;49.286;10.788;2023-07-16T01:17:38;13.73;;;4.17;;
3337;SDS011;1682;49.286;10.788;2023-07-16T01:20:27;7.70;;;4.73;;
3337;SDS011;1682;49.286;10.788;2023-07-16T01:23:24;3.67;;;3.03;;
3337;SDS011;1682;49.286;10.788;2023-07-16T01:26:18;5.10;;;3.70;;
3337;SDS011;1682;49.286;10.788;2023-07-16T01:29:21;3.60;;;3.40;;
3337;SDS011;1682;49.286;10.788;2023-07-16T01:32:13;6.23;;;3.80;;
3337;SDS011;1682;49.286;10.788;2023-07-16T01:35:00;7.90;;;3.57;;
3337;SDS011;1682;49.286;10.788;2023-07-16T01:37:49;5.20;;;3.50;;
3337;SDS011;1682;49.286;10.788;2023-07-16T01:40:36;4.63;;;3.70;;
3337;SDS011;1682;49.286;10.788;2023-07-16T01:43:24;3.63;;;3.30;;
3337;SDS011;1682;49.286;10.788;2023-07-16T01:46:13;7.10;;;4.03;;
3337;SDS011;1682;49.286;10.788;2023-07-16T01:49:00;4.50;;;3.87;;
3337;SDS011;1682;49.286;10.788;2023-07-16T01:51:48;5.60;;;3.20;;
3337;SDS011;1682;49.286;10.788;2023-07-16T01:54:35;6.67;;;4.30;;
3337;SDS011;1682;49.286;10.788;2023-07-16T01:57:23;6.07;;;3.60;;
3337;SDS011;1682;49.286;10.788;2023-07-16T02:00:10;3.90;;;3.33;;
3337;SDS011;1682;49.286;10.788;2023-07-16T02:02:59;5.93;;;4.27;;
3337;SDS011;1682;49.286;10.788;2023-07-16T02:05:47;10.47;;;5.67;;
3337;SDS011;1682;49.286;10.788;2023-07-16T02:08:35;4.63;;;3.90;;
3337;SDS011;1682;49.286;10.788;2023-07-16T02:11:22;10.30;;;7.27;;
3337;SDS011;1682;49.286;10.788;2023-07-16T02:14:10;4.40;;;3.17;;
3337;SDS011;1682;49.286;10.788;2023-07-16T02:16:58;10.20;;;5.10;;
3337;SDS011;1682;49.286;10.788;2023-07-16T02:19:47;8.63;;;4.63;;
3337;SDS011;1682;49.286;10.788;2023-07-16T02:22:35;11.60;;;5.57;;
3337;SDS011;1682;49.286;10.788;2023-07-16T02:25:22;4.67;;;3.23;;
3337;SDS011;1682;49.286;10.788;2023-07-16T02:28:10;8.73;;;4.90;;
3337;SDS011;1682;49.286;10.788;2023-07-16T02:30:58;4.80;;;4.30;;
3337;SDS011;1682;49.286;10.788;2023-07-16T02:33:45;6.00;;;4.40;;
3337;SDS011;1682;49.286;10.788;2023-07-16T02:36:34;4.53;;;3.20;;
3337;SDS011;1682;49.286;10.788;2023-07-16T02:39:22;5.60;;;3.70;;
3337;SDS011;1682;49.286;10.788;2023-07-16T02:42:09;3.77;;;3.37;;
3337;SDS011;1682;49.286;10.788;2023-07-16T02:44:57;3.77;;;3.17;;
3337;SDS011;1682;49.286;10.788;2023-07-16T02:47:44;3.40;;;3.20;;
3337;SDS011;1682;49.286;10.788;2023-07-16T02:50:33;4.70;;;4.40;;
3337;SDS011;1682;49.286;10.788;2023-07-16T02:53:22;8.23;;;4.03;;
3337;SDS011;1682;49.286;10.788;2023-07-16T02:56:10;4.23;;;2.90;;
3337;SDS011;1682;49.286;10.788;2023-07-16T02:58:57;4.50;;;3.43;;
3337;SDS011;1682;49.286;10.788;2023-07-16T03:01:45;6.40;;;4.80;;
3337;SDS011;1682;49.286;10.788;2023-07-16T03:04:32;4.53;;;3.80;;
3337;SDS011;1682;49.286;10.788;2023-07-16T03:07:19;3.07;;;2.87;;
3337;SDS011;1682;49.286;10.788;2023-07-16T03:10:09;4.40;;;3.37;;
3337;SDS011;1682;49.286;10.788;2023-07-16T03:12:56;4.77;;;3.17;;
3337;SDS011;1682;49.286;10.788;2023-07-16T03:15:44;3.03;;;2.73;;
3337;SDS011;1682;49.286;10.788;2023-07-16T03:18:32;3.57;;;2.80;;
3337;SDS011;1682;49.286;10.788;2023-07-16T03:21:19;3.50;;;2.83;;
3337;SDS011;1682;49.286;10.788;2023-07-16T03:24:07;3.20;;;3.00;;
3337;SDS011;1682;49.286;10.788;2023-07-16T03:26:56;3.07;;;2.80;;
3337;SDS011;1682;49.286;10.788;2023-07-16T03:29:43;3.37;;;3.07;;
3337;SDS011;1682;49.286;10.788;2023-07-16T03:32:31;2.57;;;2.37;;
3337;SDS011;1682;49.286;10.788;2023-07-16T03:35:18;6.27;;;2.50;;
3337;SDS011;1682;49.286;10.788;2023-07-16T03:38:06;2.83;;;2.57;;
3337;SDS011;1682;49.286;10.788;2023-07-16T03:40:53;4.60;;;4.20;;
3337;SDS011;1682;49.286;10.788;2023-07-16T03:43:42;3.20;;;2.77;;
3337;SDS011;1682;49.286;10.788;2023-07-16T03:46:29;2.53;;;2.30;;
3337;SDS011;1682;49.286;10.788;2023-07-16T03:49:17;2.30;;;2.20;;
3337;SDS011;1682;49.286;10.788;2023-07-16T03:52:05;3.13;;;2.90;;
3337;SDS011;1682;49.286;10.788;2023-07-16T03:54:52;2.60;;;2.40;;
3337;SDS011;1682;49.286;10.788;2023-07-16T03:57:40;2.90;;;2.10;;
3337;SDS011;1682;49.286;10.788;2023-07-16T04:00:29;3.23;;;2.60;;
3337;SDS011;1682;49.286;10.788;2023-07-16T04:03:17;3.13;;;2.70;;
3337;SDS011;1682;49.286;10.788;2023-07-16T04:06:05;3.50;;;3.10;;
3337;SDS011;1682;49.286;10.788;2023-07-16T04:08:54;2.67;;;2.47;;
3337;SDS011;1682;49.286;10.788;2023-07-16T04:11:42;3.10;;;2.80;;
3337;SDS011;1682;49.286;10.788;2023-07-16T04:14:29;2.10;;;2.00;;
3337;SDS011;1682;49.286;10.788;2023-07-16T04:17:18;2.07;;;1.97;;
3337;SDS011;1682;49.286;10.788;2023-07-16T04:20:06;2.77;;;2.57;;
3337;SDS011;1682;49.286;10.788;2023-07-16T04:22:54;3.13;;;2.93;;
3337;SDS011;1682;49.286;10.788;2023-07-16T04:25:42;3.73;;;2.43;;
3337;SDS011;1682;49.286;10.788;2023-07-16T04:28:29;6.23;;;3.20;;
3337;SDS011;1682;49.286;10.788;2023-07-16T04:31:17;2.33;;;2.17;;
3337;SDS011;1682;49.286;10.788;2023-07-16T04:34:05;2.80;;;2.60;;
3337;SDS011;1682;49.286;10.788;2023-07-16T04:36:53;3.23;;;2.47;;
3337;SDS011;1682;49.286;10.788;2023-07-16T04:39:40;1.97;;;1.83;;
3337;SDS011;1682;49.286;10.788;2023-07-16T04:42:28;7.40;;;2.33;;
3337;SDS011;1682;49.286;10.788;2023-07-16T04:45:16;2.83;;;1.73;;
3337;SDS011;1682;49.286;10.788;2023-07-16T04:48:04;2.57;;;2.07;;
3337;SDS011;1682;49.286;10.788;2023-07-16T04:50:53;4.43;;;1.93;;
3337;SDS011;1682;49.286;10.788;2023-07-16T04:53:40;3.40;;;2.30;;
3337;SDS011;1682;49.286;10.788;2023-07-16T04:56:28;2.10;;;1.90;;
3337;SDS011;1682;49.286;10.788;2023-07-16T04:59:15;2.20;;;2.00;;
3337;SDS011;1682;49.286;10.788;2023-07-16T05:02:04;2.37;;;2.27;;
3337;SDS011;1682;49.286;10.788;2023-07-16T05:04:52;3.70;;;2.17;;
3337;SDS011;1682;49.286;10.788;2023-07-16T05:07:40;2.73;;;2.50;;
3337;SDS011;1682;49.286;10.788;2023-07-16T05:10:28;6.30;;;1.90;;
3337;SDS011;1682;49.286;10.788;2023-07-16T05:13:15;2.50;;;1.80;;
3337;SDS011;1682;49.286;10.788;2023-07-16T05:16:03;2.53;;;1.80;;
3337;SDS011;1682;49.286;10.788;2023-07-16T05:18:51;1.97;;;1.87;;
3337;SDS011;1682;49.286;10.788;2023-07-16T05:21:38;2.00;;;1.90;;
3337;SDS011;1682;49.286;10.788;2023-07-16T05:24:27;2.93;;;2.17;;
3337;SDS011;1682;49.286;10.788;2023-07-16T05:27:14;2.17;;;1.97;;
3337;SDS011;1682;49.286;10.788;2023-07-16T05:30:02;3.73;;;2.30;;
3337;SDS011;1682;49.286;10.788;2023-07-16T05:32:49;2.50;;;2.30;;
3337;SDS011;1682;49.286;10.788;2023-07-16T05:35:37;5.90;;;2.27;;
3337;SDS011;1682;49.286;10.788;2023-07-16T05:44:01;4.05;;;2.10;;
3337;SDS011;1682;49.286;10.788;2023-07-16T05:46:48;3.57;;;2.40;;
3337;SDS011;1682;49.286;10.788;2023-07-16T05:49:36;4.73;;;2.57;;
3337;SDS011;1682;49.286;10.788;2023-07-16T05:52:23;1.80;;;1.50;;
3337;SDS011;1682;49.286;10.788;2023-07-16T05:55:11;2.30;;;2.10;;
3337;SDS011;1682;49.286;10.788;2023-07-16T05:57:58;2.57;;;2.00;;
3337;SDS011;1682;49.286;10.788;2023-07-16T06:00:47;2.40;;;1.87;;
3337;SDS011;1682;49.286;10.788;2023-07-16T06:03:35;2.93;;;2.20;;
3337;SDS011;1682;49.286;10.788;2023-07-16T06:06:22;5.57;;;2.47;;
3337;SDS011;1682;49.286;10.788;2023-07-16T06:09:10;3.70;;;2.30;;
3337;SDS011;1682;49.286;10.788;2023-07-16T06:11:57;3.50;;;2.13;;
3337;SDS011;1682;49.286;10.788;2023-07-16T06:14:44;2.67;;;2.27;;
3337;SDS011;1682;49.286;10.788;2023-07-16T06:17:33;4.60;;;2.13;;
3337;SDS011;1682;49.286;10.788;2023-07-16T06:20:21;5.60;;;2.43;;
3337;SDS011;1682;49.286;10.788;2023-07-16T06:23:08;2.93;;;2.30;;
3337;SDS011;1682;49.286;10.788;2023-07-16T06:25:56;5.53;;;2.50;;
3337;SDS011;1682;49.286;10.788;2023-07-16T06:28:44;2.33;;;1.80;;
3337;SDS011;1682;49.286;10.788;2023-07-16T06:31:34;2.03;;;1.93;;
3337;SDS011;1682;49.286;10.788;2023-07-16T06:34:23;3.63;;;1.93;;
3337;SDS011;1682;49.286;10.788;2023-07-16T06:37:11;2.23;;;1.73;;
3337;SDS011;1682;49.286;10.788;2023-07-16T06:39:58;6.43;;;2.27;;
3337;SDS011;1682;49.286;10.788;2023-07-16T06:42:45;2.63;;;2.30;;
3337;SDS011;1682;49.286;10.788;2023-07-16T06:45:33;3.03;;;2.40;;
3337;SDS011;1682;49.286;10.788;2023-07-16T06:48:20;2.23;;;2.13;;
3337;SDS011;1682;49.286;10.788;2023-07-16T06:51:09;5.20;;;2.23;;
3337;SDS011;1682;49.286;10.788;2023-07-16T06:53:57;2.30;;;2.10;;
3337;SDS011;1682;49.286;10.788;2023-07-16T06:56:44;2.70;;;1.70;;
3337;SDS011;1682;49.286;10.788;2023-07-16T06:59:32;6.70;;;2.00;;
3337;SDS011;1682;49.286;10.788;2023-07-16T07:02:19;3.10;;;2.20;;
3337;SDS011;1682;49.286;10.788;2023-07-16T07:05:07;6.63;;;2.30;;
3337;SDS011;1682;49.286;10.788;2023-07-16T07:07:56;3.60;;;2.60;;
3337;SDS011;1682;49.286;10.788;2023-07-16T07:10:43;2.80;;;2.20;;
3337;SDS011;1682;49.286;10.788;2023-07-16T07:13:31;5.43;;;2.30;;
3337;SDS011;1682;49.286;10.788;2023-07-16T07:16:18;3.20;;;1.87;;
3337;SDS011;1682;49.286;10.788;2023-07-16T07:19:06;3.70;;;2.70;;
3337;SDS011;1682;49.286;10.788;2023-07-16T07:21:53;2.47;;;2.03;;
3337;SDS011;1682;49.286;10.788;2023-07-16T07:24:42;2.40;;;2.07;;
3337;SDS011;1682;49.286;10.788;2023-07-16T07:27:30;3.97;;;2.60;;
3337;SDS011;1682;49.286;10.788;2023-07-16T07:30:17;4.30;;;1.93;;
3337;SDS011;1682;49.286;10.788;2023-07-16T07:33:05;2.37;;;2.23;;
3337;SDS011;1682;49.286;10.788;2023-07-16T07:35:53;4.30;;;2.20;;
3337;SDS011;1682;49.286;10.788;2023-07-16T07:38:40;2.97;;;2.70;;
3337;SDS011;1682;49.286;10.788;2023-07-16T07:41:29;8.40;;;4.70;;
3337;SDS011;1682;49.286;10.788;2023-07-16T07:44:17;7.50;;;2.20;;
3337;SDS011;1682;49.286;10.788;2023-07-16T07:47:04;7.13;;;2.00;;
3337;SDS011;1682;49.286;10.788;2023-07-16T07:49:54;3.07;;;2.10;;
3337;SDS011;1682;49.286;10.788;2023-07-16T07:52:41;2.40;;;1.70;;
3337;SDS011;1682;49.286;10.788;2023-07-16T07:55:29;2.87;;;2.30;;
3337;SDS011;1682;49.286;10.788;2023-07-16T07:58:17;4.60;;;2.40;;
3337;SDS011;1682;49.286;10.788;2023-07-16T08:01:05;3.10;;;2.30;;
3337;SDS011;1682;49.286;10.788;2023-07-16T08:03:53;3.53;;;2.10;;
3337;SDS011;1682;49.286;10.788;2023-07-16T08:06:40;4.90;;;2.43;;
3337;SDS011;1682;49.286;10.788;2023-07-16T08:09:28;5.10;;;2.00;;
3337;SDS011;1682;49.286;10.788;2023-07-16T08:12:16;3.27;;;2.97;;
3337;SDS011;1682;49.286;10.788;2023-07-16T08:15:05;2.43;;;2.23;;
3337;SDS011;1682;49.286;10.788;2023-07-16T08:17:54;2.20;;;2.00;;
3337;SDS011;1682;49.286;10.788;2023-07-16T08:20:46;4.47;;;1.80;;
3337;SDS011;1682;49.286;10.788;2023-07-16T08:23:33;5.83;;;2.20;;
3337;SDS011;1682;49.286;10.788;2023-07-16T08:26:21;2.03;;;1.60;;
3337;SDS011;1682;49.286;10.788;2023-07-16T08:29:08;5.63;;;2.40;;
3337;SDS011;1682;49.286;10.788;2023-07-16T08:31:57;2.13;;;1.80;;
3337;SDS011;1682;49.286;10.788;2023-07-16T08:34:44;3.17;;;2.50;;
3337;SDS011;1682;49.286;10.788;2023-07-16T08:37:32;2.53;;;2.03;;
3337;SDS011;1682;49.286;10.788;2023-07-16T08:40:19;2.80;;;2.17;;
3337;SDS011;1682;49.286;10.788;2023-07-16T08:43:07;2.33;;;1.67;;
3337;SDS011;1682;49.286;10.788;2023-07-16T08:45:56;7.70;;;2.60;;
3337;SDS011;1682;49.286;10.788;2023-07-16T08:48:45;2.30;;;2.10;;
3337;SDS011;1682;49.286;10.788;2023-07-16T08:51:33;5.37;;;2.40;;
3337;SDS011;1682;49.286;10.788;2023-07-16T08:54:21;1.90;;;1.80;;
3337;SDS011;1682;49.286;10.788;2023-07-16T08:57:10;5.67;;;2.90;;
3337;SDS011;1682;49.286;10.788;2023-07-16T08:59:58;6.70;;;2.10;;
3337;SDS011;1682;49.286;10.788;2023-07-16T09:02:46;3.87;;;2.40;;
3337;SDS011;1682;49.286;10.788;2023-07-16T09:05:35;2.33;;;1.90;;
3337;SDS011;1682;49.286;10.788;2023-07-16T09:08:23;2.40;;;2.13;;
3337;SDS011;1682;49.286;10.788;2023-07-16T09:11:14;4.27;;;2.20;;
3337;SDS011;1682;49.286;10.788;2023-07-16T09:14:06;6.63;;;3.37;;
3337;SDS011;1682;49.286;10.788;2023-07-16T09:16:54;2.97;;;2.23;;
3337;SDS011;1682;49.286;10.788;2023-07-16T09:19:41;2.37;;;1.87;;
3337;SDS011;1682;49.286;10.788;2023-07-16T09:22:30;6.10;;;2.80;;
3337;SDS011;1682;49.286;10.788;2023-07-16T09:25:17;5.43;;;2.33;;
3337;SDS011;1682;49.286;10.788;2023-07-16T09:28:05;4.03;;;2.10;;
3337;SDS011;1682;49.286;10.788;2023-07-16T09:30:52;3.10;;;2.20;;
3337;SDS011;1682;49.286;10.788;2023-07-16T09:33:40;2.13;;;1.43;;
3337;SDS011;1682;49.286;10.788;2023-07-16T09:36:28;2.10;;;1.90;;
3337;SDS011;1682;49.286;10.788;2023-07-16T09:39:17;3.50;;;2.00;;
3337;SDS011;1682;49.286;10.788;2023-07-16T09:42:06;3.03;;;1.90;;
3337;SDS011;1682;49.286;10.788;2023-07-16T09:44:54;2.70;;;1.57;;
3337;SDS011;1682;49.286;10.788;2023-07-16T09:47:41;2.33;;;2.13;;
3337;SDS011;1682;49.286;10.788;2023-07-16T09:50:30;4.37;;;2.23;;
3337;SDS011;1682;49.286;10.788;2023-07-16T09:53:19;5.13;;;2.70;;
3337;SDS011;1682;49.286;10.788;2023-07-16T09:56:08;4.80;;;2.60;;
3337;SDS011;1682;49.286;10.788;2023-07-16T09:58:55;2.20;;;2.00;;
3337;SDS011;1682;49.286;10.788;2023-07-16T10:01:44;2.57;;;2.33;;
3337;SDS011;1682;49.286;10.788;2023-07-16T10:04:37;3.20;;;1.93;;
3337;SDS011;1682;49.286;10.788;2023-07-16T10:07:25;2.10;;;2.00;;
3337;SDS011;1682;49.286;10.788;2023-07-16T10:10:13;6.60;;;1.93;;
3337;SDS011;1682;49.286;10.788;2023-07-16T10:13:04;2.07;;;1.87;;
3337;SDS011;1682;49.286;10.788;2023-07-16T10:15:52;3.63;;;1.77;;
3337;SDS011;1682;49.286;10.788;2023-07-16T10:18:49;4.30;;;2.10;;
3337;SDS011;1682;49.286;10.788;2023-07-16T10:21:38;2.57;;;2.37;;
3337;SDS011;1682;49.286;10.788;2023-07-16T10:24:27;1.83;;;1.73;;
3337;SDS011;1682;49.286;10.788;2023-07-16T10:27:14;2.90;;;1.90;;
3337;SDS011;1682;49.286;10.788;2023-07-16T10:30:04;4.27;;;1.80;;
3337;SDS011;1682;49.286;10.788;2023-07-16T10:32:52;1.80;;;1.70;;
3337;SDS011;1682;49.286;10.788;2023-07-16T10:35:40;3.30;;;2.20;;
3337;SDS011;1682;49.286;10.788;2023-07-16T10:38:28;1.80;;;1.70;;
3337;SDS011;1682;49.286;10.788;2023-07-16T10:41:15;3.47;;;1.93;;
3337;SDS011;1682;49.286;10.788;2023-07-16T10:44:03;2.97;;;1.70;;
3337;SDS011;1682;49.286;10.788;2023-07-16T10:46:52;3.40;;;2.83;;
3337;SDS011;1682;49.286;10.788;2023-07-16T10:49:40;3.93;;;3.23;;
3337;SDS011;1682;49.286;10.788;2023-07-16T10:52:28;2.23;;;1.80;;
3337;SDS011;1682;49.286;10.788;2023-07-16T10:55:15;1.77;;;1.67;;
3337;SDS011;1682;49.286;10.788;2023-07-16T10:58:04;2.60;;;1.60;;
3337;SDS011;1682;49.286;10.788;2023-07-16T11:00:52;2.70;;;1.90;;
3337;SDS011;1682;49.286;10.788;2023-07-16T11:03:41;3.80;;;2.23;;
3337;SDS011;1682;49.286;10.788;2023-07-16T11:06:28;4.00;;;2.20;;
3337;SDS011;1682;49.286;10.788;2023-07-16T11:09:16;2.40;;;1.90;;
3337;SDS011;1682;49.286;10.788;2023-07-16T11:12:06;1.87;;;1.70;;
3337;SDS011;1682;49.286;10.788;2023-07-16T11:20:30;1.60;;;1.50;;
3337;SDS011;1682;49.286;10.788;2023-07-16T11:23:18;4.40;;;3.90;;
3337;SDS011;1682;49.286;10.788;2023-07-16T11:26:05;2.33;;;1.77;;
3337;SDS011;1682;49.286;10.788;2023-07-16T11:28:53;3.00;;;2.60;;
3337;SDS011;1682;49.286;10.788;2023-07-16T11:31:41;2.37;;;1.83;;
3337;SDS011;1682;49.286;10.788;2023-07-16T11:34:28;2.23;;;2.00;;
3337;SDS011;1682;49.286;10.788;2023-07-16T11:37:17;1.70;;;1.60;;
3337;SDS011;1682;49.286;10.788;2023-07-16T11:40:07;3.07;;;2.70;;
3337;SDS011;1682;49.286;10.788;2023-07-16T11:42:54;4.03;;;2.23;;
3337;SDS011;1682;49.286;10.788;2023-07-16T11:45:46;3.17;;;2.23;;
3337;SDS011;1682;49.286;10.788;2023-07-16T11:48:34;8.40;;;5.50;;
3337;SDS011;1682;49.286;10.788;2023-07-16T11:51:22;2.57;;;2.17;;
3337;SDS011;1682;49.286;10.788;2023-07-16T11:54:11;2.60;;;1.63;;
3337;SDS011;1682;49.286;10.788;2023-07-16T11:56:59;4.20;;;3.90;;
3337;SDS011;1682;49.286;10.788;2023-07-16T11:59:46;1.60;;;1.50;;
3337;SDS011;1682;49.286;10.788;2023-07-16T12:02:34;1.80;;;1.70;;
3337;SDS011;1682;49.286;10.788;2023-07-16T12:05:22;2.00;;;1.80;;
3337;SDS011;1682;49.286;10.788;2023-07-16T12:08:12;4.03;;;2.23;;
3337;SDS011;1682;49.286;10.788;2023-07-16T12:11:01;2.03;;;1.83;;
3337;SDS011;1682;49.286;10.788;2023-07-16T12:13:49;2.30;;;2.17;;
3337;SDS011;1682;49.286;10.788;2023-07-16T12:16:36;1.63;;;1.53;;
3337;SDS011;1682;49.286;10.788;2023-07-16T12:19:24;2.33;;;1.90;;
3337;SDS011;1682;49.286;10.788;2023-07-16T12:22:11;2.40;;;2.20;;
3337;SDS011;1682;49.286;10.788;2023-07-16T12:24:59;4.18;;;2.65;;
3337;SDS011;1682;49.286;10.788;2023-07-16T12:27:48;10.30;;;4.38;;
3337;SDS011;1682;49.286;10.788;2023-07-16T12:30:36;2.08;;;1.88;;
3337;SDS011;1682;49.286;10.788;2023-07-16T12:33:23;1.90;;;1.35;;
3337;SDS011;1682;49.286;10.788;2023-07-16T12:36:11;2.65;;;1.70;;
3337;SDS011;1682;49.286;10.788;2023-07-16T12:38:58;2.03;;;1.80;;
3337;SDS011;1682;49.286;10.788;2023-07-16T12:41:46;2.00;;;1.77;;
3337;SDS011;1682;49.286;10.788;2023-07-16T12:44:35;2.13;;;1.77;;
3337;SDS011;1682;49.286;10.788;2023-07-16T12:47:22;1.45;;;1.35;;
3337;SDS011;1682;49.286;10.788;2023-07-16T12:50:10;2.03;;;1.83;;
3337;SDS011;1682;49.286;10.788;2023-07-16T12:52:58;2.95;;;1.88;;
3337;SDS011;1682;49.286;10.788;2023-07-16T12:55:46;2.30;;;1.67;;
3337;SDS011;1682;49.286;10.788;2023-07-16T12:58:33;2.83;;;2.00;;
3337;SDS011;1682;49.286;10.788;2023-07-16T13:01:22;1.48;;;1.38;;
3337;SDS011;1682;49.286;10.788;2023-07-16T13:04:10;1.27;;;1.17;;
3337;SDS011;1682;49.286;10.788;2023-07-16T13:06:57;2.85;;;1.95;;
3337;SDS011;1682;49.286;10.788;2023-07-16T13:09:45;2.42;;;1.55;;
3337;SDS011;1682;49.286;10.788;2023-07-16T13:12:32;2.47;;;2.03;;
3337;SDS011;1682;49.286;10.788;2023-07-16T13:15:20;2.10;;;1.30;;
3337;SDS011;1682;49.286;10.788;2023-07-16T13:18:10;1.77;;;1.67;;
3337;SDS011;1682;49.286;10.788;2023-07-16T13:20:57;2.42;;;1.40;;
3337;SDS011;1682;49.286;10.788;2023-07-16T13:23:45;4.90;;;2.33;;
3337;SDS011;1682;49.286;10.788;2023-07-16T13:26:32;5.03;;;2.90;;
3337;SDS011;1682;49.286;10.788;2023-07-16T13:29:20;2.05;;;1.90;;
3337;SDS011;1682;49.286;10.788;2023-07-16T13:32:07;1.80;;;1.70;;
3337;SDS011;1682;49.286;10.788;2023-07-16T13:34:56;2.30;;;2.00;;
3337;SDS011;1682;49.286;10.788;2023-07-16T13:37:44;3.72;;;2.88;;
3337;SDS011;1682;49.286;10.788;2023-07-16T13:40:32;2.33;;;2.20;;
3337;SDS011;1682;49.286;10.788;2023-07-16T13:43:19;2.93;;;2.10;;
3337;SDS011;1682;49.286;10.788;2023-07-16T13:46:07;1.92;;;1.75;;
3337;SDS011;1682;49.286;10.788;2023-07-16T13:48:54;2.15;;;1.95;;
3337;SDS011;1682;49.286;10.788;2023-07-16T13:51:43;2.15;;;2.05;;
3337;SDS011;1682;49.286;10.788;2023-07-16T13:54:31;3.10;;;2.90;;
3337;SDS011;1682;49.286;10.788;2023-07-16T13:57:18;3.85;;;1.80;;
3337;SDS011;1682;49.286;10.788;2023-07-16T14:00:07;2.20;;;2.00;;
3337;SDS011;1682;49.286;10.788;2023-07-16T14:02:55;1.60;;;1.50;;
3337;SDS011;1682;49.286;10.788;2023-07-16T14:05:43;1.70;;;1.50;;
3337;SDS011;1682;49.286;10.788;2023-07-16T14:08:32;1.85;;;1.75;;
3337;SDS011;1682;49.286;10.788;2023-07-16T14:11:21;1.97;;;1.83;;
3337;SDS011;1682;49.286;10.788;2023-07-16T14:14:09;1.80;;;1.70;;
3337;SDS011;1682;49.286;10.788;2023-07-16T14:16:56;1.93;;;1.83;;
3337;SDS011;1682;49.286;10.788;2023-07-16T14:19:44;6.27;;;3.70;;
3337;SDS011;1682;49.286;10.788;2023-07-16T14:22:32;2.13;;;2.03;;
3337;SDS011;1682;49.286;10.788;2023-07-16T14:25:21;2.55;;;2.35;;
3337;SDS011;1682;49.286;10.788;2023-07-16T14:27:48;1.70;;;1.60;;
3337;SDS011;1682;49.286;10.788;2023-07-16T14:30:15;2.15;;;2.05;;
3337;SDS011;1682;49.286;10.788;2023-07-16T14:32:43;1.67;;;1.58;;
3337;SDS011;1682;49.286;10.788;2023-07-16T14:35:10;1.60;;;1.50;;
3337;SDS011;1682;49.286;10.788;2023-07-16T14:37:37;2.55;;;2.00;;
3337;SDS011;1682;49.286;10.788;2023-07-16T14:40:05;2.33;;;2.13;;
3337;SDS011;1682;49.286;10.788;2023-07-16T14:42:35;1.50;;;1.40;;
3337;SDS011;1682;49.286;10.788;2023-07-16T14:45:02;2.85;;;2.65;;
3337;SDS011;1682;49.286;10.788;2023-07-16T14:47:30;3.20;;;1.83;;
3337;SDS011;1682;49.286;10.788;2023-07-16T14:49:57;1.75;;;1.45;;
3337;SDS011;1682;49.286;10.788;2023-07-16T14:52:25;3.55;;;2.10;;
3337;SDS011;1682;49.286;10.788;2023-07-16T14:54:52;2.17;;;1.60;;
3337;SDS011;1682;49.286;10.788;2023-07-16T14:57:19;1.83;;;1.73;;
3337;SDS011;1682;49.286;10.788;2023-07-16T14:59:48;2.13;;;1.92;;
3337;SDS011;1682;49.286;10.788;2023-07-16T15:02:15;2.03;;;1.83;;
3337;SDS011;1682;49.286;10.788;2023-07-16T15:04:42;2.15;;;1.95;;
3337;SDS011;1682;49.286;10.788;2023-07-16T15:07:10;2.35;;;1.65;;
3337;SDS011;1682;49.286;10.788;2023-07-16T15:09:37;2.10;;;1.83;;
3337;SDS011;1682;49.286;10.788;2023-07-16T15:12:04;3.88;;;3.58;;
3337;SDS011;1682;49.286;10.788;2023-07-16T15:14:33;5.35;;;2.10;;
3337;SDS011;1682;49.286;10.788;2023-07-16T15:17:01;1.63;;;1.50;;
3337;SDS011;1682;49.286;10.788;2023-07-16T15:19:29;2.10;;;1.90;;
3337;SDS011;1682;49.286;10.788;2023-07-16T15:21:56;2.10;;;1.58;;
3337;SDS011;1682;49.286;10.788;2023-07-16T15:24:23;3.05;;;1.83;;
3337;SDS011;1682;49.286;10.788;2023-07-16T15:26:50;3.78;;;2.30;;
3337;SDS011;1682;49.286;10.788;2023-07-16T15:29:17;2.05;;;1.80;;
3337;SDS011;1682;49.286;10.788;2023-07-16T15:31:45;2.40;;;2.30;;
3337;SDS011;1682;49.286;10.788;2023-07-16T15:34:13;2.88;;;1.65;;
3337;SDS011;1682;49.286;10.788;2023-07-16T15:36:40;2.95;;;1.52;;
3337;SDS011;1682;49.286;10.788;2023-07-16T15:39:08;1.90;;;1.80;;
3337;SDS011;1682;49.286;10.788;2023-07-16T15:41:35;7.38;;;5.15;;
3337;SDS011;1682;49.286;10.788;2023-07-16T15:44:02;1.87;;;1.77;;
3337;SDS011;1682;49.286;10.788;2023-07-16T15:46:29;2.10;;;2.00;;
3337;SDS011;1682;49.286;10.788;2023-07-16T15:48:57;2.30;;;1.97;;
3337;SDS011;1682;49.286;10.788;2023-07-16T15:51:25;2.10;;;1.90;;
3337;SDS011;1682;49.286;10.788;2023-07-16T15:53:53;2.30;;;2.00;;
3337;SDS011;1682;49.286;10.788;2023-07-16T15:56:21;2.30;;;1.83;;
3337;SDS011;1682;49.286;10.788;2023-07-16T15:58:48;2.43;;;2.23;;
3337;SDS011;1682;49.286;10.788;2023-07-16T16:01:15;2.20;;;2.00;;
3337;SDS011;1682;49.286;10.788;2023-07-16T16:03:43;2.23;;;1.80;;
3337;SDS011;1682;49.286;10.788;2023-07-16T16:06:10;2.50;;;1.63;;
3337;SDS011;1682;49.286;10.788;2023-07-16T16:08:39;4.57;;;2.73;;
3337;SDS011;1682;49.286;10.788;2023-07-16T16:11:06;2.30;;;2.10;;
3337;SDS011;1682;49.286;10.788;2023-07-16T16:13:33;3.77;;;2.47;;
3337;SDS011;1682;49.286;10.788;2023-07-16T16:16:00;6.97;;;5.10;;
3337;SDS011;1682;49.286;10.788;2023-07-16T16:18:28;2.17;;;2.07;;
3337;SDS011;1682;49.286;10.788;2023-07-16T16:20:55;8.00;;;1.93;;
3337;SDS011;1682;49.286;10.788;2023-07-16T16:23:22;2.13;;;2.03;;
3337;SDS011;1682;49.286;10.788;2023-07-16T16:25:51;2.00;;;1.87;;
3337;SDS011;1682;49.286;10.788;2023-07-16T16:28:18;2.20;;;2.00;;
3337;SDS011;1682;49.286;10.788;2023-07-16T16:30:47;1.83;;;1.70;;
3337;SDS011;1682;49.286;10.788;2023-07-16T16:33:14;1.93;;;1.83;;
3337;SDS011;1682;49.286;10.788;2023-07-16T16:35:42;3.60;;;2.60;;
3337;SDS011;1682;49.286;10.788;2023-07-16T16:38:09;2.13;;;2.00;;
3337;SDS011;1682;49.286;10.788;2023-07-16T16:40:38;3.50;;;1.70;;
3337;SDS011;1682;49.286;10.788;2023-07-16T16:43:07;2.10;;;2.00;;
3337;SDS011;1682;49.286;10.788;2023-07-16T16:45:34;3.40;;;2.70;;
3337;SDS011;1682;49.286;10.788;2023-07-16T16:48:04;2.73;;;2.50;;
3337;SDS011;1682;49.286;10.788;2023-07-16T16:50:31;2.40;;;2.30;;
3337;SDS011;1682;49.286;10.788;2023-07-16T16:52:59;2.63;;;2.53;;
3337;SDS011;1682;49.286;10.788;2023-07-16T16:55:26;3.67;;;2.23;;
3337;SDS011;1682;49.286;10.788;2023-07-16T16:57:53;1.80;;;1.70;;
3337;SDS011;1682;49.286;10.788;2023-07-16T17:00:22;3.93;;;1.83;;
3337;SDS011;1682;49.286;10.788;2023-07-16T17:02:49;4.80;;;4.50;;
3337;SDS011;1682;49.286;10.788;2023-07-16T17:05:17;4.23;;;2.47;;